createdAt,value
2019-04-05T00:00:19.344Z,18.23
2019-04-05T00:02:49.822Z,20.23
2019-04-05T00:05:20.317Z,18.40
2019-04-05T00:07:50.990Z,17.70
2019-04-05T00:10:21.466Z,17.50
2019-04-05T00:12:51.976Z,17.30
2019-04-05T00:15:22.447Z,17.73
2019-04-05T00:17:52.961Z,18.53
2019-04-05T00:20:23.458Z,17.20
2019-04-05T00:22:53.972Z,17.73
2019-04-05T00:25:24.465Z,17.03
2019-04-05T00:27:54.982Z,18.13
2019-04-05T00:30:25.450Z,17.97
2019-04-05T00:32:55.944Z,16.87
2019-04-05T00:35:26.462Z,17.93
2019-04-05T00:37:56.973Z,17.40
2019-04-05T00:40:27.444Z,17.00
2019-04-05T00:42:57.967Z,16.53
2019-04-05T00:45:29.192Z,16.50
2019-04-05T00:47:59.763Z,16.80
2019-04-05T00:50:30.226Z,17.17
2019-04-05T00:53:02.002Z,16.00
2019-04-05T00:55:32.552Z,17.40
2019-04-05T00:58:03.125Z,16.83
2019-04-05T01:00:33.677Z,17.20
2019-04-05T01:03:04.163Z,16.70
2019-04-05T01:05:34.990Z,16.93
2019-04-05T01:08:05.570Z,17.10
2019-04-05T01:10:36.186Z,16.20
2019-04-05T01:13:06.841Z,17.20
2019-04-05T01:15:41.196Z,16.60
2019-04-05T01:18:09.597Z,16.70
2019-04-05T01:20:42.712Z,16.10
2019-04-05T01:23:14.504Z,17.40
2019-04-05T01:25:46.357Z,17.30
2019-04-05T01:28:18.659Z,17.07
2019-04-05T01:30:49.194Z,16.57
2019-04-05T01:33:19.698Z,17.40
2019-04-05T01:35:50.199Z,16.17
2019-04-05T01:38:20.752Z,16.47
2019-04-05T01:40:51.527Z,17.00
2019-04-05T01:43:22.503Z,16.67
2019-04-05T01:45:54.534Z,17.00
2019-04-05T01:48:25.183Z,16.67
2019-04-05T01:50:56.662Z,16.23
2019-04-05T01:53:27.311Z,17.20
2019-04-05T01:55:57.947Z,16.70
2019-04-05T01:58:30.091Z,17.03
2019-04-05T02:01:00.661Z,17.70
2019-04-05T02:03:31.197Z,17.27
2019-04-05T02:06:01.828Z,16.93
2019-04-05T02:08:34.052Z,18.50
2019-04-05T02:11:04.785Z,18.50
2019-04-05T02:13:35.328Z,18.00
2019-04-05T02:16:06.933Z,18.40
2019-04-05T02:18:37.619Z,17.17
2019-04-05T02:21:08.458Z,17.70
2019-04-05T02:23:39.076Z,17.77
2019-04-05T02:26:09.723Z,17.93
2019-04-05T02:28:40.203Z,18.40
2019-04-05T02:31:11.802Z,17.80
2019-04-05T02:33:42.368Z,17.10
2019-04-05T02:36:12.914Z,18.30
2019-04-05T02:38:43.418Z,18.00
2019-04-05T02:41:15.416Z,16.70
2019-04-05T02:43:47.556Z,18.20
2019-04-05T02:46:24.030Z,17.90
2019-04-05T02:48:51.798Z,17.90
2019-04-05T02:51:25.365Z,16.87
2019-04-05T02:53:58.106Z,17.83
2019-04-05T02:56:31.490Z,16.40
2019-04-05T02:59:02.829Z,18.37
2019-04-05T03:01:34.258Z,17.47
2019-04-05T03:04:05.423Z,16.90
2019-04-05T03:06:36.454Z,14.80
2019-04-05T03:09:07.858Z,17.30
2019-04-05T03:11:39.602Z,17.40
2019-04-05T03:14:11.373Z,17.27
2019-04-05T03:16:45.520Z,17.93
2019-04-05T03:19:19.461Z,16.13
2019-04-05T03:21:54.102Z,16.90
2019-04-05T03:24:29.291Z,16.30
2019-04-05T03:27:04.645Z,17.53
2019-04-05T03:29:35.635Z,17.63
2019-04-05T03:32:06.821Z,18.90
2019-04-05T03:34:37.411Z,18.43
2019-04-05T03:37:07.972Z,17.10
2019-04-05T03:39:38.502Z,19.47
2019-04-05T03:42:09.889Z,23.07
2019-04-05T03:44:40.900Z,19.87
2019-04-05T03:47:12.044Z,17.70
2019-04-05T03:49:43.629Z,18.40
2019-04-05T03:52:14.197Z,19.30
2019-04-05T03:54:44.789Z,17.43
2019-04-05T03:57:15.275Z,18.50
2019-04-05T03:59:45.872Z,19.10
2019-04-05T04:02:16.807Z,18.73
2019-04-05T04:04:47.362Z,17.37
2019-04-05T04:07:18.327Z,18.70
2019-04-05T04:09:49.156Z,17.43
2019-04-05T04:12:19.687Z,18.60
2019-04-05T04:14:51.024Z,17.20
2019-04-05T04:17:22.557Z,16.70
2019-04-05T04:19:53.102Z,17.13
2019-04-05T04:22:30.683Z,17.23
2019-04-05T04:25:01.296Z,16.27
2019-04-05T04:27:32.188Z,17.10
2019-04-05T04:30:03.422Z,16.90
2019-04-05T04:32:33.935Z,16.57
2019-04-05T04:35:07.601Z,18.67
2019-04-05T04:37:38.831Z,16.97
2019-04-05T04:40:09.470Z,15.80
2019-04-05T04:42:40.014Z,16.87
2019-04-05T04:45:13.328Z,16.30
2019-04-05T04:47:46.137Z,17.23
2019-04-05T04:50:17.347Z,19.47
2019-04-05T04:52:48.143Z,18.17
2019-04-05T04:55:18.769Z,19.13
2019-04-05T04:57:49.267Z,18.03
2019-04-05T05:00:20.571Z,17.50
2019-04-05T05:02:51.505Z,18.60
2019-04-05T05:05:22.202Z,19.40
2019-04-05T05:07:53.125Z,19.80
2019-04-05T05:10:24.842Z,18.73
2019-04-05T05:12:55.676Z,18.90
2019-04-05T05:15:27.415Z,27.90
2019-04-05T05:17:59.164Z,20.27
2019-04-05T05:20:30.042Z,18.93
2019-04-05T05:23:01.033Z,18.03
2019-04-05T05:25:32.029Z,17.77
2019-04-05T05:28:02.748Z,44.67
2019-04-05T05:30:33.372Z,42.90
2019-04-05T05:33:04.510Z,73.40
2019-04-05T05:35:35.275Z,45.40
2019-04-05T05:38:06.081Z,24.47
2019-04-05T05:40:38.307Z,21.93
2019-04-05T05:43:09.525Z,18.47
2019-04-05T05:45:40.091Z,18.80
2019-04-05T05:48:11.054Z,19.47
2019-04-05T05:50:42.339Z,18.60
2019-04-05T05:53:14.956Z,16.90
2019-04-05T05:55:45.408Z,18.30
2019-04-05T05:58:15.868Z,18.40
2019-04-05T06:00:46.359Z,18.87
2019-04-05T06:03:16.929Z,19.27
2019-04-05T06:05:47.390Z,17.87
2019-04-05T06:08:19.725Z,18.40
2019-04-05T06:10:50.208Z,19.17
2019-04-05T06:13:20.700Z,19.43
2019-04-05T06:15:51.233Z,20.60
2019-04-05T06:18:21.741Z,19.90
2019-04-05T06:20:52.296Z,19.80
2019-04-05T06:23:33.122Z,18.90
2019-04-05T06:25:55.052Z,19.47
2019-04-05T06:28:25.515Z,49.60
2019-04-05T06:30:55.971Z,59.37
2019-04-05T06:33:31.716Z,23.10
2019-04-05T06:35:58.646Z,20.40
2019-04-05T06:38:29.115Z,18.63
2019-04-05T06:40:59.623Z,17.43
2019-04-05T06:43:30.085Z,18.00
2019-04-05T06:46:01.538Z,19.50
2019-04-05T06:48:32.397Z,18.70
2019-04-05T06:51:02.867Z,19.40
2019-04-05T06:53:33.356Z,19.03
2019-04-05T06:56:03.838Z,16.50
2019-04-05T06:58:34.339Z,26.93
2019-04-05T07:01:04.882Z,22.70
2019-04-05T07:03:35.387Z,26.37
2019-04-05T07:06:05.923Z,18.90
2019-04-05T07:08:36.420Z,16.60
2019-04-05T07:11:06.898Z,17.20
2019-04-05T07:13:37.423Z,16.40
2019-04-05T07:16:10.928Z,16.43
2019-04-05T07:18:40.167Z,16.83
2019-04-05T07:21:10.778Z,16.60
2019-04-05T07:23:41.333Z,16.37
2019-04-05T07:26:11.804Z,17.27
2019-04-05T07:28:42.299Z,16.80
2019-04-05T07:31:12.767Z,17.87
2019-04-05T07:33:43.272Z,16.30
2019-04-05T07:36:14.342Z,17.23
2019-04-05T07:38:44.808Z,16.43
2019-04-05T07:41:15.325Z,18.30
2019-04-05T07:43:46.926Z,17.20
2019-04-05T07:46:17.424Z,18.47
2019-04-05T07:48:49.332Z,17.57
2019-04-05T07:51:22.600Z,17.60
2019-04-05T07:53:52.004Z,17.33
2019-04-05T07:56:24.449Z,16.77
2019-04-05T07:59:14.263Z,17.00
2019-04-05T08:01:45.419Z,14.70
2019-04-05T08:04:16.069Z,14.50
2019-04-05T08:06:49.519Z,15.80
2019-04-05T08:09:21.591Z,16.47
2019-04-05T08:11:52.557Z,15.80
2019-04-05T08:14:23.363Z,14.53
2019-04-05T08:16:53.938Z,15.17
2019-04-05T08:19:24.415Z,14.53
2019-04-05T08:21:54.941Z,14.80
2019-04-05T08:24:25.411Z,14.47
2019-04-05T08:26:56.913Z,14.43
2019-04-05T08:29:27.385Z,14.73
2019-04-05T08:31:57.896Z,14.23
2019-04-05T08:34:28.359Z,14.13
2019-04-05T08:36:58.867Z,14.60
2019-04-05T08:39:29.352Z,13.50
2019-04-05T08:42:01.631Z,15.00
2019-04-05T08:44:32.157Z,12.47
2019-04-05T08:47:03.823Z,12.00
2019-04-05T08:49:34.306Z,13.03
2019-04-05T08:52:04.952Z,12.23
2019-04-05T08:54:36.979Z,12.30
2019-04-05T08:57:07.682Z,14.27
2019-04-05T08:59:38.169Z,14.10
2019-04-05T09:02:08.652Z,13.77
2019-04-05T09:04:39.182Z,13.60
2019-04-05T09:07:09.691Z,13.27
2019-04-05T09:09:40.160Z,13.57
2019-04-05T09:12:10.659Z,12.57
2019-04-05T09:14:41.165Z,13.30
2019-04-05T09:17:11.626Z,12.53
2019-04-05T09:19:42.132Z,11.77
2019-04-05T09:22:12.601Z,11.53
2019-04-05T09:24:43.182Z,12.27
2019-04-05T09:27:13.687Z,12.40
2019-04-05T09:29:44.152Z,12.37
2019-04-05T09:32:14.657Z,11.50
2019-04-05T09:34:45.203Z,12.87
2019-04-05T09:37:15.706Z,12.43
2019-04-05T09:39:46.182Z,12.73
2019-04-05T09:42:16.696Z,12.60
2019-04-05T09:44:47.162Z,13.00
2019-04-05T09:47:17.753Z,12.37
2019-04-05T09:49:48.264Z,13.50
2019-04-05T09:52:18.758Z,12.90
2019-04-05T09:54:49.231Z,11.60
2019-04-05T09:57:19.749Z,12.87
2019-04-05T09:59:50.224Z,13.67
2019-04-05T10:02:20.725Z,12.80
2019-04-05T10:04:51.237Z,12.00
2019-04-05T10:07:21.712Z,12.37
2019-04-05T10:09:52.198Z,12.23
2019-04-05T10:12:22.666Z,12.30
2019-04-05T10:14:53.191Z,11.07
2019-04-05T10:17:23.660Z,12.10
2019-04-05T10:19:54.157Z,12.33
2019-04-05T10:22:24.629Z,10.67
2019-04-05T10:24:57.568Z,12.13
2019-04-05T10:27:28.042Z,10.87
2019-04-05T10:29:58.539Z,15.77
2019-04-05T10:32:29.009Z,11.50
2019-04-05T10:34:59.525Z,12.03
2019-04-05T10:37:29.994Z,11.43
2019-04-05T10:40:00.496Z,11.60
2019-04-05T10:42:37.959Z,12.53
2019-04-05T10:45:12.039Z,12.37
2019-04-05T10:47:42.560Z,20.80
2019-04-05T10:50:16.267Z,12.13
2019-04-05T10:52:46.765Z,12.47
2019-04-05T10:55:17.426Z,11.70
2019-04-05T10:57:47.914Z,11.60
2019-04-05T11:00:20.761Z,10.83
2019-04-05T11:02:51.260Z,12.10
2019-04-05T11:05:21.788Z,10.30
2019-04-05T11:07:52.256Z,11.93
2019-04-05T11:10:22.835Z,12.40
2019-04-05T11:12:53.296Z,11.10
2019-04-05T11:15:23.799Z,11.87
2019-04-05T11:17:54.292Z,11.03
2019-04-05T11:20:25.209Z,11.47
2019-04-05T11:22:55.671Z,11.80
2019-04-05T11:25:26.176Z,11.00
2019-04-05T11:27:56.978Z,11.80
2019-04-05T11:30:43.417Z,11.80
2019-04-05T11:33:14.331Z,10.90
2019-04-05T11:35:45.323Z,11.30
2019-04-05T11:38:36.678Z,23.27
2019-04-05T11:41:07.889Z,11.63
2019-04-05T11:43:39.646Z,11.90
2019-04-05T11:46:10.568Z,11.73
2019-04-05T11:48:41.494Z,12.07
2019-04-05T11:51:14.910Z,11.63
2019-04-05T11:53:45.416Z,12.43
2019-04-05T11:56:19.740Z,10.97
2019-04-05T11:58:49.419Z,13.50
2019-04-05T12:01:23.452Z,12.30
2019-04-05T12:03:54.014Z,12.83
2019-04-05T12:06:24.489Z,13.13
2019-04-05T12:08:55.004Z,11.90
2019-04-05T12:11:25.487Z,12.60
2019-04-05T12:13:56.000Z,12.97
2019-04-05T12:16:26.475Z,12.97
2019-04-05T12:18:58.926Z,12.47
2019-04-05T12:21:29.171Z,12.00
2019-04-05T12:24:02.299Z,12.13
2019-04-05T12:26:32.413Z,12.40
2019-04-05T12:29:04.114Z,11.70
2019-04-05T12:31:34.589Z,11.43
2019-04-05T12:34:05.171Z,11.77
2019-04-05T12:36:35.678Z,11.23
2019-04-05T12:39:08.498Z,11.83
2019-04-05T12:41:40.891Z,11.50
2019-04-05T12:44:15.140Z,11.63
2019-04-05T12:46:45.842Z,11.27
2019-04-05T12:49:16.818Z,12.40
2019-04-05T12:51:47.276Z,13.40
2019-04-05T12:54:17.746Z,13.40
2019-04-05T12:56:48.263Z,18.43
2019-04-05T12:59:18.742Z,11.10
2019-04-05T13:01:49.243Z,11.43
2019-04-05T13:04:20.615Z,11.83
2019-04-05T13:06:52.964Z,12.30
2019-04-05T13:09:24.688Z,11.60
2019-04-05T13:11:57.407Z,11.57
2019-04-05T13:14:27.557Z,11.80
2019-04-05T13:17:01.789Z,10.53
2019-04-05T13:19:30.733Z,11.90
2019-04-05T13:22:02.817Z,10.27
2019-04-05T13:24:34.040Z,11.10
2019-04-05T13:27:04.912Z,11.07
2019-04-05T13:29:35.374Z,11.33
2019-04-05T13:32:06.015Z,11.73
2019-04-05T13:34:36.526Z,11.03
2019-04-05T13:37:19.303Z,11.57
2019-04-05T13:39:39.476Z,12.10
2019-04-05T13:42:09.953Z,12.10
2019-04-05T13:44:40.532Z,12.10
2019-04-05T13:47:11.010Z,12.10
2019-04-05T13:49:41.600Z,11.27
2019-04-05T13:52:12.766Z,13.20
2019-04-05T13:54:43.389Z,11.67
2019-04-05T13:57:13.949Z,11.77
2019-04-05T13:59:44.835Z,14.57
2019-04-05T14:02:15.448Z,12.30
2019-04-05T14:04:45.973Z,12.40
2019-04-05T14:07:16.460Z,12.00
2019-04-05T14:09:46.982Z,12.60
2019-04-05T14:12:17.495Z,12.03
2019-04-05T14:14:51.404Z,12.10
2019-04-05T14:17:21.146Z,11.93
2019-04-05T14:19:51.620Z,12.43
2019-04-05T14:22:22.651Z,11.93
2019-04-05T14:24:56.436Z,13.00
2019-04-05T14:27:25.717Z,12.43
2019-04-05T14:29:56.182Z,12.63
2019-04-05T14:32:26.747Z,12.43
2019-04-05T14:34:57.251Z,12.63
2019-04-05T14:37:27.756Z,12.30
2019-04-05T14:39:58.310Z,13.00
2019-04-05T14:42:29.765Z,12.23
2019-04-05T14:45:00.380Z,12.57
2019-04-05T14:47:31.031Z,13.47
2019-04-05T14:50:01.595Z,13.30
2019-04-05T14:52:32.096Z,11.93
2019-04-05T14:55:02.768Z,12.03
2019-04-05T14:57:35.480Z,13.07
2019-04-05T15:00:08.734Z,12.40
2019-04-05T15:02:39.279Z,12.73
2019-04-05T15:05:10.318Z,12.63
2019-04-05T15:07:41.397Z,12.80
2019-04-05T15:10:12.335Z,12.87
2019-04-05T15:12:42.809Z,13.30
2019-04-05T15:15:13.948Z,12.87
2019-04-05T15:17:48.266Z,12.80
2019-04-05T15:20:17.241Z,12.20
2019-04-05T15:22:47.699Z,13.00
2019-04-05T15:25:21.569Z,11.80
2019-04-05T15:27:55.182Z,13.07
2019-04-05T15:30:25.656Z,26.27
2019-04-05T15:32:57.675Z,21.00
2019-04-05T15:35:28.269Z,14.80
2019-04-05T15:38:01.424Z,22.97
2019-04-05T15:40:34.694Z,12.97
2019-04-05T15:43:05.269Z,16.20
2019-04-05T15:45:35.737Z,21.60
2019-04-05T15:48:06.377Z,13.20
2019-04-05T15:50:36.847Z,12.10
2019-04-05T15:53:07.352Z,13.77
2019-04-05T15:55:38.286Z,13.30
2019-04-05T15:58:08.821Z,13.80
2019-04-05T16:00:44.728Z,13.53
2019-04-05T16:03:16.372Z,14.30
2019-04-05T16:05:47.388Z,13.13
2019-04-05T16:08:21.736Z,12.03
2019-04-05T16:10:52.302Z,12.90
2019-04-05T16:13:22.813Z,13.33
2019-04-05T16:15:53.324Z,14.50
2019-04-05T16:18:23.830Z,16.10
2019-04-05T16:20:54.302Z,14.60
2019-04-05T16:23:24.813Z,14.53
2019-04-05T16:25:55.376Z,14.47
2019-04-05T16:28:25.880Z,14.27
2019-04-05T16:30:57.896Z,14.50
2019-04-05T16:33:28.430Z,14.10
2019-04-05T16:35:58.905Z,13.13
2019-04-05T16:38:29.439Z,14.07
2019-04-05T16:40:59.938Z,13.37
2019-04-05T16:43:30.413Z,14.37
2019-04-05T16:46:00.939Z,14.13
2019-04-05T16:48:31.402Z,15.37
2019-04-05T16:51:01.949Z,14.73
2019-04-05T16:53:32.786Z,21.30
2019-04-05T16:56:05.250Z,16.70
2019-04-05T16:58:35.828Z,21.90
2019-04-05T17:01:06.308Z,16.53
2019-04-05T17:03:37.285Z,14.20
2019-04-05T17:06:07.759Z,13.67
2019-04-05T17:08:38.267Z,12.10
2019-04-05T17:11:08.739Z,12.97
2019-04-05T17:13:39.260Z,14.67
2019-04-05T17:16:09.797Z,13.57
2019-04-05T17:18:40.372Z,13.13
2019-04-05T17:21:10.846Z,13.00
2019-04-05T17:23:41.344Z,11.47
2019-04-05T17:26:11.871Z,13.60
2019-04-05T17:28:42.370Z,12.43
2019-04-05T17:31:12.878Z,12.83
2019-04-05T17:33:43.850Z,13.20
2019-04-05T17:36:14.376Z,13.27
2019-04-05T17:38:44.851Z,14.57
2019-04-05T17:41:17.224Z,13.63
2019-04-05T17:43:47.773Z,14.90
2019-04-05T17:46:18.951Z,32.07
2019-04-05T17:48:51.705Z,14.80
2019-04-05T17:51:21.802Z,50.87
2019-04-05T17:53:52.339Z,17.57
2019-04-05T17:56:23.166Z,15.80
2019-04-05T17:58:56.765Z,13.60
2019-04-05T18:01:27.351Z,14.47
2019-04-05T18:03:57.831Z,13.63
2019-04-05T18:06:28.619Z,13.20
2019-04-05T18:08:59.140Z,14.43
2019-04-05T18:11:29.963Z,15.00
2019-04-05T18:14:01.142Z,14.50
2019-04-05T18:16:32.987Z,15.20
2019-04-05T18:19:04.340Z,15.50
2019-04-05T18:21:34.820Z,13.57
2019-04-05T18:24:06.972Z,14.47
2019-04-05T18:26:37.449Z,14.83
2019-04-05T18:29:07.956Z,13.20
2019-04-05T18:31:38.507Z,14.67
2019-04-05T18:34:09.013Z,14.03
2019-04-05T18:36:39.566Z,13.50
2019-04-05T18:39:11.771Z,13.63
2019-04-05T18:41:42.312Z,13.97
2019-04-05T18:44:12.826Z,14.50
2019-04-05T18:46:43.310Z,13.40
2019-04-05T18:49:13.798Z,14.83
2019-04-05T18:51:44.261Z,15.30
2019-04-05T18:54:14.765Z,15.73
2019-04-05T18:56:45.273Z,17.17
2019-04-05T18:59:15.760Z,17.20
2019-04-05T19:01:47.626Z,19.57
2019-04-05T19:04:21.168Z,18.97
2019-04-05T19:06:51.638Z,19.07
2019-04-05T19:09:22.315Z,24.60
2019-04-05T19:11:52.788Z,26.50
2019-04-05T19:14:23.277Z,23.80
2019-04-05T19:16:53.838Z,30.27
2019-04-05T19:19:24.338Z,21.13
2019-04-05T19:21:54.887Z,19.43
2019-04-05T19:24:25.357Z,17.50
2019-04-05T19:26:55.977Z,19.60
2019-04-05T19:29:26.743Z,18.90
2019-04-05T19:49:43.252Z,17.47
2019-04-05T19:52:13.765Z,17.67
2019-04-05T19:54:44.379Z,18.00
2019-04-05T19:57:14.893Z,17.97
2019-04-05T19:59:45.382Z,17.60
2019-04-05T20:02:15.945Z,20.13
2019-04-05T20:04:46.408Z,17.63
2019-04-05T20:07:16.911Z,18.20
2019-04-05T20:09:47.423Z,18.87
2019-04-05T20:12:17.899Z,20.57
2019-04-05T20:14:48.419Z,18.90
2019-04-05T20:17:18.975Z,18.70
2019-04-05T20:19:49.505Z,19.20
2019-04-05T20:22:19.967Z,19.63
2019-04-05T20:24:50.463Z,18.40
2019-04-05T20:27:22.517Z,18.13
2019-04-05T20:29:52.989Z,18.70
2019-04-05T20:32:23.495Z,17.67
2019-04-05T20:34:53.960Z,18.20
2019-04-05T20:37:24.464Z,19.47
2019-04-05T20:39:55.017Z,19.30
2019-04-05T20:42:25.521Z,19.80
2019-04-05T20:44:55.991Z,19.00
2019-04-05T20:47:27.279Z,18.50
2019-04-05T20:49:57.775Z,16.90
2019-04-05T20:52:28.271Z,17.90
2019-04-05T20:54:58.783Z,17.73
2019-04-05T20:57:30.403Z,18.80
2019-04-05T21:00:02.548Z,17.60
2019-04-05T21:02:33.022Z,16.60
2019-04-05T21:05:03.692Z,18.97
2019-04-05T21:07:34.166Z,17.33
2019-04-05T21:10:07.174Z,17.30
2019-04-05T21:12:37.647Z,16.10
2019-04-05T21:15:09.287Z,16.73
2019-04-05T21:17:39.758Z,16.10
2019-04-05T21:20:10.585Z,15.70
2019-04-05T21:22:41.250Z,16.33
2019-04-05T21:25:11.811Z,16.47
2019-04-05T21:27:42.291Z,15.27
2019-04-05T21:30:13.216Z,16.57
2019-04-05T21:32:43.674Z,16.60
2019-04-05T21:35:15.851Z,15.63
2019-04-05T21:37:46.317Z,14.90
2019-04-05T21:40:17.534Z,16.20
2019-04-05T21:42:48.040Z,16.50
2019-04-05T21:45:18.553Z,16.53
2019-04-05T21:47:49.035Z,16.00
2019-04-05T21:50:19.547Z,16.10
2019-04-05T21:52:50.006Z,14.90
2019-04-05T21:55:20.519Z,16.10
2019-04-05T21:57:51.234Z,16.57
2019-04-05T22:00:27.766Z,16.67
2019-04-05T22:02:58.317Z,15.73
2019-04-05T22:05:28.898Z,16.20
2019-04-05T22:07:59.447Z,16.20
2019-04-05T22:10:29.935Z,15.87
2019-04-05T22:13:00.432Z,15.90
2019-04-05T22:15:33.698Z,15.50
2019-04-05T22:18:04.213Z,15.47
2019-04-05T22:20:34.666Z,14.03
2019-04-05T22:23:05.195Z,16.70
2019-04-05T22:25:35.658Z,15.43
2019-04-05T22:28:06.245Z,16.57
2019-04-05T22:30:36.790Z,16.30
2019-04-05T22:33:07.371Z,16.73
2019-04-05T22:35:37.864Z,17.13
2019-04-05T22:38:08.347Z,17.10
2019-04-05T22:40:38.839Z,17.07
2019-04-05T22:43:09.355Z,18.10
2019-04-05T22:45:39.809Z,17.10
2019-04-05T22:48:10.303Z,17.00
2019-04-05T22:50:40.876Z,17.90
2019-04-05T22:53:11.346Z,16.53
2019-04-05T22:55:43.390Z,16.80
2019-04-05T22:58:13.856Z,16.30
2019-04-05T23:00:44.428Z,16.90
2019-04-05T23:03:14.904Z,16.30
2019-04-05T23:05:45.414Z,15.47
2019-04-05T23:08:15.959Z,18.23
2019-04-05T23:10:46.521Z,19.57
2019-04-05T23:13:16.982Z,18.20
2019-04-05T23:15:47.487Z,18.07
2019-04-05T23:18:17.944Z,19.03
2019-04-05T23:20:48.439Z,19.17
2019-04-05T23:23:18.954Z,19.53
2019-04-05T23:25:49.448Z,17.60
2019-04-05T23:28:19.950Z,18.00
2019-04-05T23:30:50.407Z,19.30
2019-04-05T23:33:21.481Z,18.43
2019-04-05T23:35:51.958Z,18.97
2019-04-05T23:38:22.454Z,16.37
2019-04-05T23:40:52.937Z,17.73
2019-04-05T23:43:23.439Z,18.77
2019-04-05T23:45:54.004Z,17.27
2019-04-05T23:48:24.490Z,18.40
2019-04-05T23:50:55.045Z,17.50
2019-04-05T23:53:25.550Z,17.63
2019-04-05T23:55:56.019Z,17.33
2019-04-05T23:58:26.515Z,18.60
